Time;durP1;ratioP1;P1;durP2;ratioP2;P2;SDS_P1;SDS_P2;PMS_P1;PMS_P2;Temp;Humidity;BMP_temperature;BMP_pressure;BME280_temperature;BME280_humidity;BME280_pressure;Samples;Min_cycle;Max_cycle;Signal;HPM_P1;HPM_P2
2020/12/19 00:00:47;;;;;;;;;;;;;;;19.31;72.11;101375.50;4988042;28;1276;-62
2020/12/19 00:03:17;;;;;;;;;;;;;;;19.44;71.51;101371.34;5005035;28;1918;-65
2020/12/19 00:05:57;;;;;;;;;;;;;;;19.31;71.71;101368.44;5005801;28;1255;-66
2020/12/19 00:08:23;;;;;;;;;;;;;;;19.33;71.62;101379.75;5006961;28;826;-65
2020/12/19 00:10:50;;;;;;;;;;;;;;;19.34;71.47;101378.84;5006976;28;1262;-66
2020/12/19 00:13:16;;;;;;;;;;;;;;;19.32;71.54;101379.84;5006964;28;795;-67
2020/12/19 00:15:43;;;;;;;;;;;;;;;19.36;71.40;101381.41;4989248;28;1289;-65
2020/12/19 00:18:09;;;;;;;;;;;;;;;19.36;71.37;101381.41;5007026;28;1319;-65
2020/12/19 00:20:35;;;;;;;;;;;;;;;19.32;71.57;101386.00;5007260;28;1204;-66
2020/12/19 00:23:01;;;;;;;;;;;;;;;19.31;71.50;101371.06;5007015;28;1910;-65
2020/12/19 00:25:27;;;;;;;;;;;;;;;19.26;71.85;101373.09;5008504;28;1049;-64
2020/12/19 00:30:51;;;;;;;;;;;;;;;19.21;71.90;101374.25;5004400;28;1928;-64
2020/12/19 00:33:18;;;;;;;;;;;;;;;19.13;72.11;101373.75;5012537;28;1123;-65
2020/12/19 00:35:45;;;;;;;;;;;;;;;19.07;72.50;101375.78;5012418;28;858;-65
2020/12/19 00:38:11;;;;;;;;;;;;;;;19.04;72.42;101377.69;5012196;28;1191;-65
2020/12/19 00:40:37;;;;;;;;;;;;;;;19.08;72.40;101380.13;5011859;28;1096;-65
2020/12/19 00:43:03;;;;;;;;;;;;;;;19.11;72.20;101376.47;5026955;28;1976;-64
2020/12/19 00:45:30;;;;;;;;;;;;;;;19.07;72.36;101369.63;5012015;28;783;-66
2020/12/19 00:47:59;;;;;;;;;;;;;;;19.03;72.57;101370.69;5026756;28;1233;-67
2020/12/19 00:50:26;;;;;;;;;;;;;;;19.04;72.48;101369.78;5011020;28;1497;-65
2020/12/19 00:52:52;;;;;;;;;;;;;;;19.06;72.32;101374.03;5011809;28;1217;-65
2020/12/19 00:55:19;;;;;;;;;;;;;;;19.08;72.44;101376.63;5011978;28;1135;-64
2020/12/19 00:57:45;;;;;;;;;;;;;;;19.00;72.46;101374.34;5011700;28;1229;-65
2020/12/19 01:00:11;;;;;;;;;;;;;;;19.01;72.50;101367.28;5011025;28;1188;-65
2020/12/19 01:02:38;;;;;;;;;;;;;;;19.05;72.53;101368.84;5011107;28;1989;-64
2020/12/19 01:05:12;;;;;;;;;;;;;;;19.12;72.04;101362.31;5011707;28;1046;-64
2020/12/19 01:07:38;;;;;;;;;;;;;;;19.07;72.17;101361.72;5011467;28;1202;-64
2020/12/19 01:10:06;;;;;;;;;;;;;;;19.10;72.22;101357.13;5011338;28;927;-64
2020/12/19 01:12:33;;;;;;;;;;;;;;;19.08;72.14;101353.72;5010128;28;1292;-65
2020/12/19 01:14:59;;;;;;;;;;;;;;;19.08;72.24;101350.22;5011508;28;1053;-64
2020/12/19 01:17:26;;;;;;;;;;;;;;;19.06;72.46;101352.06;5011363;28;1221;-65
2020/12/19 01:19:52;;;;;;;;;;;;;;;19.07;72.31;101344.09;5011464;28;1046;-65
2020/12/19 01:22:19;;;;;;;;;;;;;;;19.04;72.18;101346.00;5011197;28;1902;-65
2020/12/19 01:24:45;;;;;;;;;;;;;;;19.03;72.29;101345.16;5011215;28;1159;-65
2020/12/19 01:27:12;;;;;;;;;;;;;;;19.07;72.26;101332.66;5011297;28;1328;-64
2020/12/19 01:29:38;;;;;;;;;;;;;;;19.06;72.28;101337.09;5010851;28;1340;-65
2020/12/19 01:32:04;;;;;;;;;;;;;;;19.11;72.00;101336.88;4993457;28;1324;-65
2020/12/19 01:34:30;;;;;;;;;;;;;;;19.07;72.13;101336.16;5011235;28;1031;-65
2020/12/19 01:36:56;;;;;;;;;;;;;;;19.14;71.84;101342.00;5009679;28;1301;-64
2020/12/19 01:39:23;;;;;;;;;;;;;;;19.12;72.07;101340.38;5011008;28;768;-65
2020/12/19 01:41:51;;;;;;;;;;;;;;;19.06;72.21;101339.72;5010752;28;1910;-65
2020/12/19 01:44:17;;;;;;;;;;;;;;;19.03;72.14;101341.66;5010971;28;795;-65
2020/12/19 01:46:56;;;;;;;;;;;;;;;19.08;71.97;101348.44;5011086;28;1394;-65
2020/12/19 01:49:24;;;;;;;;;;;;;;;19.10;71.94;101353.63;5010351;28;1045;-65
2020/12/19 01:51:55;;;;;;;;;;;;;;;19.11;71.89;101350.06;5009444;28;1341;-65
2020/12/19 01:54:21;;;;;;;;;;;;;;;19.06;71.93;101345.00;5010824;28;814;-65
2020/12/19 01:56:49;;;;;;;;;;;;;;;19.15;71.67;101343.69;5009112;28;1687;-64
2020/12/19 01:59:15;;;;;;;;;;;;;;;19.07;72.05;101333.53;5009990;28;1084;-64
2020/12/19 02:01:46;;;;;;;;;;;;;;;19.14;71.71;101343.78;5008941;28;2009;-65
2020/12/19 02:04:12;;;;;;;;;;;;;;;19.09;71.84;101334.28;5010543;28;768;-66
2020/12/19 02:07:00;;;;;;;;;;;;;;;19.11;71.82;101331.59;5010498;28;1296;-66
2020/12/19 02:09:27;;;;;;;;;;;;;;;19.06;71.91;101333.56;5008563;28;1407;-67
2020/12/19 02:11:54;;;;;;;;;;;;;;;19.12;71.75;101335.09;5010403;28;1221;-64
2020/12/19 02:14:23;;;;;;;;;;;;;;;19.16;71.51;101326.06;5010264;28;827;-65
2020/12/19 02:16:53;;;;;;;;;;;;;;;19.11;71.59;101328.94;5010745;28;1394;-66
2020/12/19 02:19:23;;;;;;;;;;;;;;;19.07;71.80;101333.53;5010319;28;990;-68
2020/12/19 02:21:50;;;;;;;;;;;;;;;19.14;71.55;101328.78;5010504;28;1910;-64
2020/12/19 02:24:19;;;;;;;;;;;;;;;19.12;71.65;101332.44;5009975;28;862;-65
2020/12/19 02:26:49;;;;;;;;;;;;;;;19.10;71.61;101328.09;5009854;28;1303;-65
2020/12/19 02:29:17;;;;;;;;;;;;;;;19.17;71.53;101325.16;5008725;28;1536;-64
2020/12/19 02:31:43;;;;;;;;;;;;;;;19.12;71.67;101324.53;5008792;28;1288;-65
2020/12/19 02:34:09;;;;;;;;;;;;;;;19.13;71.43;101319.16;5008660;28;811;-65
2020/12/19 02:36:36;;;;;;;;;;;;;;;19.02;71.93;101319.69;5010068;28;1414;-66
2020/12/19 02:39:03;;;;;;;;;;;;;;;19.06;71.89;101321.25;5009755;28;984;-63
2020/12/19 02:41:39;;;;;;;;;;;;;;;19.12;71.41;101321.88;5010379;28;1906;-63
2020/12/19 02:44:07;;;;;;;;;;;;;;;19.12;71.67;101327.16;5009972;28;845;-63
2020/12/19 02:46:34;;;;;;;;;;;;;;;19.07;71.71;101317.69;5009925;28;1382;-65
2020/12/19 02:49:00;;;;;;;;;;;;;;;19.03;71.98;101320.53;5009671;28;1092;-64
2020/12/19 02:51:26;;;;;;;;;;;;;;;19.06;71.57;101309.81;5008998;28;1540;-64
2020/12/19 02:53:53;;;;;;;;;;;;;;;19.02;71.79;101308.28;5009633;28;716;-64
2020/12/19 02:56:19;;;;;;;;;;;;;;;19.05;71.80;101319.53;5009259;28;1316;-64
2020/12/19 02:58:45;;;;;;;;;;;;;;;19.08;71.86;101313.25;5008401;28;1021;-64
2020/12/19 03:01:11;;;;;;;;;;;;;;;19.13;71.47;101305.09;5009525;28;1390;-64
2020/12/19 03:03:37;;;;;;;;;;;;;;;19.07;71.65;101296.56;5009366;28;1910;-65
2020/12/19 03:06:11;;;;;;;;;;;;;;;19.08;71.31;101298.28;5009647;28;1257;-64
2020/12/19 03:08:37;;;;;;;;;;;;;;;19.14;71.21;101296.25;5009623;28;1072;-64
2020/12/19 03:11:03;;;;;;;;;;;;;;;19.13;71.39;101297.16;4991721;28;1426;-64
2020/12/19 03:13:29;;;;;;;;;;;;;;;19.12;71.30;101298.13;5008201;28;1295;-64
2020/12/19 03:15:55;;;;;;;;;;;;;;;19.02;71.49;101293.28;5009731;28;1273;-64
2020/12/19 03:18:21;;;;;;;;;;;;;;;19.07;71.45;101295.69;5009475;28;862;-64
2020/12/19 03:20:48;;;;;;;;;;;;;;;19.10;71.25;101293.75;5009592;28;1208;-64
2020/12/19 03:23:15;;;;;;;;;;;;;;;19.08;71.37;101293.00;5008669;28;1918;-64
2020/12/19 03:25:42;;;;;;;;;;;;;;;19.09;71.25;101289.41;5009351;28;1054;-64
2020/12/19 03:28:08;;;;;;;;;;;;;;;19.09;71.50;101289.41;5009008;28;1660;-63
2020/12/19 03:30:34;;;;;;;;;;;;;;;19.07;71.07;101298.34;5009280;28;987;-64
2020/12/19 03:33:02;;;;;;;;;;;;;;;19.09;71.37;101294.69;5009204;28;1229;-64
2020/12/19 03:35:29;;;;;;;;;;;;;;;19.09;71.08;101297.31;5008093;28;1147;-64
2020/12/19 03:37:55;;;;;;;;;;;;;;;19.10;71.12;101296.41;5008932;28;1225;-64
2020/12/19 03:40:21;;;;;;;;;;;;;;;19.04;71.20;101290.56;5008923;28;1037;-65
2020/12/19 03:42:48;;;;;;;;;;;;;;;19.04;71.42;101296.72;5008604;28;1914;-64
2020/12/19 03:45:17;;;;;;;;;;;;;;;19.04;71.32;101299.34;5009158;28;1111;-64
2020/12/19 03:47:43;;;;;;;;;;;;;;;19.08;70.93;101300.06;5008698;28;1181;-64
2020/12/19 03:50:10;;;;;;;;;;;;;;;19.08;71.12;101295.63;5008874;28;1053;-64
2020/12/19 03:52:36;;;;;;;;;;;;;;;19.03;71.33;101294.97;5008709;28;1241;-64
2020/12/19 03:55:03;;;;;;;;;;;;;;;19.04;71.37;101295.84;5008055;28;983;-64
2020/12/19 03:57:29;;;;;;;;;;;;;;;19.05;71.22;101289.63;5008800;28;1221;-65
2020/12/19 03:59:55;;;;;;;;;;;;;;;19.06;70.99;101288.69;5007107;28;1271;-64
2020/12/19 04:02:21;;;;;;;;;;;;;;;19.03;71.30;101287.06;5008688;28;1972;-65
2020/12/19 04:04:47;;;;;;;;;;;;;;;19.03;71.19;101279.13;5012657;28;1093;-64
2020/12/19 04:07:14;;;;;;;;;;;;;;;18.97;71.39;101287.38;5012893;28;1245;-65
2020/12/19 04:09:40;;;;;;;;;;;;;;;19.03;71.17;101279.13;5012741;28;1124;-64
2020/12/19 04:12:06;;;;;;;;;;;;;;;19.01;71.56;101281.00;4994798;28;1319;-64
2020/12/19 04:14:39;;;;;;;;;;;;;;;19.02;71.40;101279.22;5012658;28;1158;-65
2020/12/19 04:17:07;;;;;;;;;;;;;;;19.03;71.10;101273.00;5012636;28;1281;-65
2020/12/19 04:19:33;;;;;;;;;;;;;;;19.04;70.80;101274.72;5012567;28;1109;-64
2020/12/19 04:22:00;;;;;;;;;;;;;;;18.98;71.12;101280.31;5010986;28;1914;-65
2020/12/19 04:24:27;;;;;;;;;;;;;;;19.05;71.22;101281.72;5010911;28;1259;-65
2020/12/19 04:26:53;;;;;;;;;;;;;;;19.01;71.08;101281.00;5012392;28;1253;-65
2020/12/19 04:29:19;;;;;;;;;;;;;;;19.01;71.39;101277.50;5012309;28;1265;-65
2020/12/19 04:31:46;;;;;;;;;;;;;;;18.91;71.63;101290.31;5010898;28;1379;-65
2020/12/19 04:34:12;;;;;;;;;;;;;;;18.96;71.46;101288.31;5012457;28;779;-66
2020/12/19 04:36:38;;;;;;;;;;;;;;;18.92;71.66;101284.09;5011152;28;1395;-64
2020/12/19 04:39:05;;;;;;;;;;;;;;;18.93;71.50;101295.53;5012732;28;873;-65
2020/12/19 04:41:32;;;;;;;;;;;;;;;18.99;71.22;101282.88;5012517;28;1910;-64
2020/12/19 04:44:00;;;;;;;;;;;;;;;19.02;70.72;101281.88;5012171;28;838;-64
2020/12/19 04:46:28;;;;;;;;;;;;;;;18.98;71.19;101275.03;5010835;28;1351;-64
2020/12/19 04:48:56;;;;;;;;;;;;;;;18.98;71.21;101281.16;5011913;28;775;-64
2020/12/19 04:51:27;;;;;;;;;;;;;;;18.95;71.54;101281.31;5012315;28;1245;-64
2020/12/19 04:53:56;;;;;;;;;;;;;;;18.95;71.36;101275.19;5011842;28;822;-65
2020/12/19 04:56:23;;;;;;;;;;;;;;;18.91;71.49;101274.47;5011097;28;1276;-65
2020/12/19 04:58:52;;;;;;;;;;;;;;;18.91;71.53;101263.91;5010168;28;1373;-65
2020/12/19 05:01:19;;;;;;;;;;;;;;;18.92;71.37;101277.97;5010426;28;1284;-65
2020/12/19 05:03:47;;;;;;;;;;;;;;;18.89;71.46;101276.34;5011577;28;1906;-66
2020/12/19 05:06:16;;;;;;;;;;;;;;;18.85;71.50;101273.91;5010061;28;1369;-65
2020/12/19 05:08:42;;;;;;;;;;;;;;;18.84;71.79;101274.88;5011545;28;1052;-65
2020/12/19 05:11:11;;;;;;;;;;;;;;;18.86;71.61;101275.63;5012009;28;1347;-65
2020/12/19 05:13:38;;;;;;;;;;;;;;;18.89;71.26;101280.75;5011358;28;775;-65
2020/12/19 05:16:04;;;;;;;;;;;;;;;18.89;71.46;101289.53;5011756;28;1284;-65
2020/12/19 05:18:30;;;;;;;;;;;;;;;18.94;70.86;101274.31;5010025;28;1306;-65
2020/12/19 05:20:56;;;;;;;;;;;;;;;18.90;71.02;101278.06;5011598;28;1205;-65
2020/12/19 05:23:23;;;;;;;;;;;;;;;18.84;71.26;101272.22;5011323;28;1979;-65
2020/12/19 05:25:49;;;;;;;;;;;;;;;18.85;71.53;101279.19;5011504;28;1129;-65
2020/12/19 05:28:15;;;;;;;;;;;;;;;18.86;71.40;101276.50;5010923;28;1411;-64
2020/12/19 05:30:41;;;;;;;;;;;;;;;18.91;71.03;101279.75;5009862;28;1502;-64
2020/12/19 05:33:10;;;;;;;;;;;;;;;18.89;71.20;101278.97;5011117;28;1304;-64
2020/12/19 05:35:39;;;;;;;;;;;;;;;18.93;71.01;101282.31;5011301;28;1426;-64
2020/12/19 05:38:05;;;;;;;;;;;;;;;18.94;70.52;101284.88;5009679;28;1230;-64
2020/12/19 05:40:33;;;;;;;;;;;;;;;18.90;70.84;101285.97;5011387;28;1065;-63
2020/12/19 05:43:00;;;;;;;;;;;;;;;18.87;70.83;101283.50;5011156;28;1906;-65
2020/12/19 05:45:28;;;;;;;;;;;;;;;18.92;70.91;101294.66;5011293;28;936;-67
2020/12/19 05:47:54;;;;;;;;;;;;;;;18.94;70.92;101289.28;5010852;28;1241;-66
2020/12/19 05:50:21;;;;;;;;;;;;;;;18.85;71.17;101284.47;5011243;28;1110;-67
2020/12/19 05:52:48;;;;;;;;;;;;;;;18.90;70.76;101283.34;5010689;28;1205;-64
2020/12/19 05:55:16;;;;;;;;;;;;;;;18.95;70.70;101285.75;5010942;28;1139;-65
2020/12/19 05:57:42;;;;;;;;;;;;;;;18.91;70.75;101284.16;5010693;28;1304;-65
2020/12/19 06:00:10;;;;;;;;;;;;;;;18.87;71.09;101283.50;5009326;28;1168;-65
2020/12/19 06:02:37;;;;;;;;;;;;;;;18.94;70.50;101284.03;5010536;28;1910;-65
2020/12/19 06:05:04;;;;;;;;;;;;;;;18.86;71.01;101286.19;5010195;28;1548;-65
2020/12/19 06:07:34;;;;;;;;;;;;;;;18.92;71.06;101286.75;5008974;28;1446;-65
2020/12/19 06:10:00;;;;;;;;;;;;;;;18.91;70.55;101289.44;5010486;28;1152;-65
2020/12/19 06:12:35;;;;;;;;;;;;;;;18.83;70.85;101294.25;5010606;28;1347;-65
2020/12/19 06:15:04;;;;;;;;;;;;;;;18.85;70.88;101287.97;5009026;28;1013;-65
2020/12/19 06:17:47;;;;;;;;;;;;;;;18.93;70.47;101293.75;5010364;28;1221;-64
2020/12/19 06:20:15;;;;;;;;;;;;;;;18.86;70.39;101294.97;5008901;28;1270;-65
2020/12/19 06:22:41;;;;;;;;;;;;;;;18.86;70.81;101296.75;5008945;28;1906;-65
2020/12/19 06:25:07;;;;;;;;;;;;;;;18.90;70.73;101304.47;5009859;28;1135;-64
2020/12/19 06:27:33;;;;;;;;;;;;;;;18.92;70.39;101293.81;5008403;28;1245;-64
2020/12/19 06:30:00;;;;;;;;;;;;;;;18.90;70.79;101290.41;5009929;28;1134;-64
2020/12/19 06:32:27;;;;;;;;;;;;;;;18.93;70.84;101296.38;5010519;28;1253;-64
2020/12/19 06:35:00;;;;;;;;;;;;;;;18.87;70.71;101291.41;5010141;28;1092;-65
2020/12/19 06:37:29;;;;;;;;;;;;;;;18.87;70.56;101299.34;5010168;28;1261;-65
2020/12/19 06:40:14;;;;;;;;;;;;;;;18.84;70.73;101298.63;5008857;28;1056;-65
2020/12/19 06:42:41;;;;;;;;;;;;;;;18.80;71.01;101294.41;5010115;28;1906;-65
2020/12/19 06:45:27;;;;;;;;;;;;;;;18.84;70.64;101296.84;5008945;28;1055;-66
2020/12/19 06:47:54;;;;;;;;;;;;;;;18.84;70.68;101307.41;5009967;28;1284;-66
2020/12/19 06:50:21;;;;;;;;;;;;;;;18.88;70.59;101305.44;5010214;28;1005;-65
2020/12/19 06:52:56;;;;;;;;;;;;;;;18.86;70.69;101305.53;5009854;28;1229;-66
2020/12/19 06:55:31;;;;;;;;;;;;;;;18.89;70.42;101307.16;5008473;28;1175;-66
2020/12/19 06:57:58;;;;;;;;;;;;;;;18.87;70.61;101309.03;5009547;28;1315;-66
2020/12/19 07:00:25;;;;;;;;;;;;;;;18.81;70.69;101310.19;5010193;28;936;-66
2020/12/19 07:02:52;;;;;;;;;;;;;;;18.87;70.65;101309.88;5009459;28;1918;-66
2020/12/19 07:05:20;;;;;;;;;;;;;;;18.75;71.16;101315.75;5009496;28;1021;-66
2020/12/19 07:07:47;;;;;;;;;;;;;;;18.81;70.73;101322.53;5009406;28;1237;-65
2020/12/19 07:10:14;;;;;;;;;;;;;;;18.74;70.78;101316.69;5008188;28;1182;-66
2020/12/19 07:12:40;;;;;;;;;;;;;;;18.80;70.65;101328.72;5007867;28;1296;-65
2020/12/19 07:15:10;;;;;;;;;;;;;;;18.83;70.88;101329.44;5009551;28;1049;-66
2020/12/19 07:17:47;;;;;;;;;;;;;;;18.81;70.63;101330.44;5009241;28;1296;-66
2020/12/19 07:20:21;;;;;;;;;;;;;;;18.82;70.62;101329.50;5007899;28;1089;-66
2020/12/19 07:22:52;;;;;;;;;;;;;;;18.85;70.31;101326.69;5007867;28;1906;-66
2020/12/19 07:25:19;;;;;;;;;;;;;;;18.79;70.65;101330.50;5009469;28;1114;-65
2020/12/19 07:27:45;;;;;;;;;;;;;;;18.85;70.46;101332.84;5009191;28;1209;-65
2020/12/19 07:30:11;;;;;;;;;;;;;;;18.85;70.53;101329.34;5009324;28;1486;-66
2020/12/19 07:32:38;;;;;;;;;;;;;;;18.77;70.82;101329.72;5008869;28;1312;-66
2020/12/19 07:35:04;;;;;;;;;;;;;;;18.78;70.48;101328.81;5007457;28;1185;-65
2020/12/19 07:37:32;;;;;;;;;;;;;;;18.81;70.67;101331.31;5008772;28;1225;-66
2020/12/19 07:40:08;;;;;;;;;;;;;;;18.81;70.42;101331.31;5009062;28;1045;-65
2020/12/19 07:42:40;;;;;;;;;;;;;;;18.80;70.35;101337.50;5016260;22;1969;-66
2020/12/19 07:45:14;;;;;;;;;;;;;;;18.73;70.96;101337.84;5008773;28;1320;-67
2020/12/19 07:47:40;;;;;;;;;;;;;;;18.78;70.84;101335.88;5006604;28;1739;-64
2020/12/19 07:50:06;;;;;;;;;;;;;;;18.77;70.66;101340.28;4990644;28;1579;-65
2020/12/19 07:52:33;;;;;;;;;;;;;;;18.83;70.40;101347.91;5008322;28;1395;-66
2020/12/19 07:55:00;;;;;;;;;;;;;;;18.81;70.75;101341.84;5008613;28;1092;-66
2020/12/19 07:57:28;;;;;;;;;;;;;;;18.66;71.13;101345.22;5007369;28;1233;-64
2020/12/19 07:59:54;;;;;;;;;;;;;;;18.72;71.32;101342.28;5008550;28;929;-66
2020/12/19 08:02:22;;;;;;;;;;;;;;;18.68;71.53;101347.78;5008500;28;1918;-64
2020/12/19 08:04:49;;;;;;;;;;;;;;;18.63;70.91;101337.47;5007420;28;1436;-65
2020/12/19 08:07:19;;;;;;;;;;;;;;;18.66;71.55;101341.72;5008528;28;1280;-65
2020/12/19 08:09:46;;;;;;;;;;;;;;;18.66;71.32;101341.72;5008626;28;887;-63
2020/12/19 08:12:15;;;;;;;;;;;;;;;18.67;71.77;101336.34;5091252;22;1658;-63
2020/12/19 08:14:46;;;;;;;;;;;;;;;18.64;71.96;101339.16;5027505;28;806;-63
2020/12/19 08:17:14;;;;;;;;;;;;;;;18.67;72.20;101344.28;5028508;28;1347;-62
2020/12/19 08:19:41;;;;;;;;;;;;;;;18.76;71.70;101337.69;5028259;28;1011;-63
2020/12/19 08:22:23;;;;;;;;;;;;;;;18.76;71.74;101342.97;5026603;28;1969;-64
2020/12/19 08:25:10;;;;;;;;;;;;;;;18.75;71.78;101341.28;4969126;28;1602;-64
2020/12/19 08:27:44;;;;;;;;;;;;;;;18.77;71.83;101340.28;4966626;28;1343;-64
2020/12/19 08:30:32;;;;;;;;;;;;;;;18.77;71.56;101334.16;4965014;28;1154;-63
2020/12/19 08:33:03;;;;;;;;;;;;;;;18.73;71.60;101333.44;4965213;28;1237;-64
2020/12/19 08:35:34;;;;;;;;;;;;;;;18.71;71.91;101335.31;4965326;28;1166;-65
2020/12/19 08:38:02;;;;;;;;;;;;;;;18.75;71.83;101342.16;4965070;28;1395;-63
2020/12/19 08:40:35;;;;;;;;;;;;;;;18.77;71.77;101331.50;4949587;28;1128;-63
2020/12/19 08:43:02;;;;;;;;;;;;;;;18.76;72.02;101337.69;4986994;28;1906;-64
2020/12/19 08:45:32;;;;;;;;;;;;;;;18.79;72.11;101337.56;5008411;28;849;-64
2020/12/19 08:48:27;;;;;;;;;;;;;;;18.77;71.42;101335.00;5008068;28;1217;-64
2020/12/19 08:50:54;;;;;;;;;;;;;;;18.78;71.50;101342.00;5011216;28;1260;-63
2020/12/19 08:53:20;;;;;;;;;;;;;;;18.73;71.62;101333.44;5016464;28;1603;-64
2020/12/19 08:55:48;;;;;;;;;;;;;;;18.69;71.27;101337.16;5030411;28;1602;-64
2020/12/19 08:58:21;;;;;;;;;;;;;;;18.69;71.69;101339.81;5030459;28;1241;-63
2020/12/19 09:00:48;;;;;;;;;;;;;;;18.74;71.87;101347.50;5029647;28;1072;-63
2020/12/19 09:03:14;;;;;;;;;;;;;;;18.72;71.99;101346.72;5031126;28;1987;-64
2020/12/19 09:05:44;;;;;;;;;;;;;;;18.77;72.12;101350.84;5030301;28;1547;-63
2020/12/19 09:08:12;;;;;;;;;;;;;;;18.87;71.03;101352.13;5031074;28;1410;-63
2020/12/19 09:10:39;;;;;;;;;;;;;;;18.76;71.00;101359.69;5029799;28;1311;-63
2020/12/19 09:13:10;;;;;;;;;;;;;;;18.72;71.29;101354.63;5030801;28;1548;-61
2020/12/19 09:15:37;;;;;;;;;;;;;;;18.69;71.50;101358.28;5031371;28;1163;-62
2020/12/19 09:18:12;;;;;;;;;;;;;;;18.70;71.57;101356.47;5030862;28;1256;-62
2020/12/19 09:20:38;;;;;;;;;;;;;;;18.74;71.43;101360.69;5030567;28;1433;-63
2020/12/19 09:23:05;;;;;;;;;;;;;;;18.81;71.39;101357.69;5030840;28;1906;-63
2020/12/19 09:25:31;;;;;;;;;;;;;;;18.90;70.92;101365.19;5031331;28;1197;-64
2020/12/19 09:34:53;;;;;;;;;;;;;;;19.07;70.30;101377.56;5085463;22;2192;-64
2020/12/19 09:37:58;;;;;;;;;;;;;;;19.00;71.13;101379.63;4959989;28;1249;-64
2020/12/19 09:40:43;;;;;;;;;;;;;;;19.07;70.63;101386.34;4974897;28;1139;-64
2020/12/19 09:43:42;;;;;;;;;;;;;;;19.13;70.57;101382.53;4929639;29;1974;-62
2020/12/19 09:46:28;;;;;;;;;;;;;;;19.07;70.63;101386.34;4924765;29;1258;-62
2020/12/19 09:49:23;;;;;;;;;;;;;;;19.15;70.34;101399.16;4920794;29;1292;-62
2020/12/19 09:52:43;;;;;;;;;;;;;;;19.00;69.84;101406.03;4937467;28;1450;-63
2020/12/19 10:00:10;;;;;;;;;;;;;;;;;;;;;
2020/12/19 10:08:17;;;;;;;;;;;;;;;18.57;71.99;101384.38;5001177;28;2112;-64
2020/12/19 10:10:59;;;;;;;;;;;;;;;18.64;71.83;101383.13;4990963;28;1664;-63
2020/12/19 10:13:28;;;;;;;;;;;;;;;18.61;72.22;101381.50;5008293;28;1051;-65
2020/12/19 10:15:54;;;;;;;;;;;;;;;18.61;72.20;101381.50;5007896;28;1303;-63
2020/12/19 10:18:21;;;;;;;;;;;;;;;18.59;72.36;101383.38;5008084;28;1170;-63
2020/12/19 10:20:47;;;;;;;;;;;;;;;18.73;71.87;101380.94;4990213;28;1194;-65
2020/12/19 10:23:13;;;;;;;;;;;;;;;18.69;71.93;101374.09;4990029;28;1915;-64
2020/12/19 10:25:40;;;;;;;;;;;;;;;18.67;72.12;101373.31;4990576;28;1143;-64
2020/12/19 10:28:06;;;;;;;;;;;;;;;18.66;72.20;101371.63;5007998;28;1205;-64
2020/12/19 10:30:32;;;;;;;;;;;;;;;18.67;72.41;101369.81;5008263;28;1161;-64
2020/12/19 10:32:59;;;;;;;;;;;;;;;18.66;72.54;101370.75;5007586;28;1619;-64
2020/12/19 10:35:25;;;;;;;;;;;;;;;18.67;72.44;101362.75;5008036;28;1586;-64
2020/12/19 10:37:51;;;;;;;;;;;;;;;18.77;72.21;101363.19;5007985;28;1331;-65
2020/12/19 10:40:17;;;;;;;;;;;;;;;18.80;71.92;101355.13;5007642;28;1354;-67
2020/12/19 10:42:44;;;;;;;;;;;;;;;18.81;71.92;101355.06;4973589;28;1910;-65
2020/12/19 10:45:11;;;;;;;;;;;;;;;18.80;72.16;101341.91;5007672;28;1163;-64
2020/12/19 10:47:37;;;;;;;;;;;;;;;18.76;71.89;101338.56;5007028;28;1425;-64
2020/12/19 10:50:05;;;;;;;;;;;;;;;18.80;71.55;101329.56;4986707;28;1020;-64
2020/12/19 10:52:32;;;;;;;;;;;;;;;18.99;70.81;101345.38;5007225;28;1327;-64
2020/12/19 10:54:58;;;;;;;;;;;;;;;18.85;71.68;101324.06;4988768;28;1378;-64
2020/12/19 10:57:25;;;;;;;;;;;;;;;18.79;71.34;101325.22;4989036;28;1390;-63
2020/12/19 10:59:57;;;;;;;;;;;;;;;18.83;71.61;101318.88;4989782;28;1185;-65
2020/12/19 11:02:23;;;;;;;;;;;;;;;18.85;71.72;101311.72;5007385;28;1914;-65
2020/12/19 11:04:50;;;;;;;;;;;;;;;18.85;71.00;101314.38;5006593;28;1505;-65
2020/12/19 11:07:16;;;;;;;;;;;;;;;18.84;70.08;101307.41;5006973;28;1237;-64
2020/12/19 11:09:42;;;;;;;;;;;;;;;18.73;70.81;101306.19;4988338;28;1323;-63
2020/12/19 11:12:08;;;;;;;;;;;;;;;18.65;71.07;101303.91;4970774;28;1241;-63
2020/12/19 11:14:34;;;;;;;;;;;;;;;18.60;71.79;101300.66;5005454;28;1151;-64
2020/12/19 11:17:01;;;;;;;;;;;;;;;18.59;71.58;101288.38;5006135;28;1225;-64
2020/12/19 11:19:36;;;;;;;;;;;;;;;18.59;71.77;101298.06;5005274;28;1185;-64
2020/12/19 11:22:02;;;;;;;;;;;;;;;18.58;71.92;101291.94;5006889;28;1323;-63
2020/12/19 11:24:28;;;;;;;;;;;;;;;18.58;71.78;101285.81;5006521;28;1989;-62
2020/12/19 11:26:54;;;;;;;;;;;;;;;18.57;71.89;101274.41;5006527;28;1225;-64
2020/12/19 11:29:20;;;;;;;;;;;;;;;18.54;71.79;101280.66;5007495;28;1172;-63
2020/12/19 11:31:48;;;;;;;;;;;;;;;18.55;71.94;101270.97;5007976;28;1402;-63
2020/12/19 11:34:14;;;;;;;;;;;;;;;18.58;71.53;101265.56;5007339;28;1112;-62
2020/12/19 11:36:41;;;;;;;;;;;;;;;18.60;71.48;101263.72;5007486;28;1244;-63
2020/12/19 11:39:11;;;;;;;;;;;;;;;18.58;71.60;101265.56;4990036;28;752;-64
2020/12/19 11:41:38;;;;;;;;;;;;;;;18.57;71.94;101263.88;5007409;28;1276;-66
2020/12/19 11:44:04;;;;;;;;;;;;;;;18.55;71.96;101256.00;5006153;28;1898;-63
2020/12/19 11:46:31;;;;;;;;;;;;;;;18.53;71.92;101263.16;5006866;28;1253;-63
2020/12/19 11:48:57;;;;;;;;;;;;;;;18.54;71.76;101264.00;5007000;28;918;-64
2020/12/19 11:51:30;;;;;;;;;;;;;;;18.56;71.95;101248.97;4989280;28;1280;-64
2020/12/19 11:54:01;;;;;;;;;;;;;;;18.70;71.35;101259.69;4989371;28;783;-64
2020/12/19 11:56:29;;;;;;;;;;;;;;;18.70;71.43;101250.91;5007184;28;1288;-65
2020/12/19 11:58:55;;;;;;;;;;;;;;;18.63;71.26;101247.75;5006330;28;787;-62
2020/12/19 12:01:28;;;;;;;;;;;;;;;18.68;71.98;101250.13;4988623;28;1379;-64
2020/12/19 12:03:54;;;;;;;;;;;;;;;18.66;71.54;101247.59;4988540;28;1973;-64
2020/12/19 12:06:27;;;;;;;;;;;;;;;18.61;71.33;101246.06;5007185;28;1277;-65
2020/12/19 12:08:54;;;;;;;;;;;;;;;18.58;71.60;101241.81;5007148;28;1075;-64
2020/12/19 12:11:24;;;;;;;;;;;;;;;18.58;71.91;101236.53;4989434;28;1358;-64
2020/12/19 12:13:50;;;;;;;;;;;;;;;18.65;72.41;101234.44;5006972;28;815;-64
2020/12/19 12:16:16;;;;;;;;;;;;;;;18.65;72.33;101235.31;5006715;28;1591;-64
2020/12/19 12:23:01;;;;;;;;;;;;;;;18.62;72.41;101210.84;4974147;28;1902;-67
2020/12/19 12:25:28;;;;;;;;;;;;;;;18.64;72.38;101216.91;5010062;28;771;-69
2020/12/19 12:27:54;;;;;;;;;;;;;;;18.80;72.90;101213.44;5010667;28;1324;-68
2020/12/19 12:30:24;;;;;;;;;;;;;;;18.92;72.37;101204.91;5010679;28;814;-67
2020/12/19 12:32:50;;;;;;;;;;;;;;;18.91;72.27;101204.97;5010805;28;1225;-66
2020/12/19 12:35:16;;;;;;;;;;;;;;;18.78;72.64;101190.69;4992916;28;775;-65
2020/12/19 12:37:42;;;;;;;;;;;;;;;18.72;71.78;101189.22;4992706;28;1234;-66
2020/12/19 12:40:21;;;;;;;;;;;;;;;18.69;72.35;101184.09;4993144;28;1198;-66
2020/12/19 12:43:07;;;;;;;;;;;;;;;18.65;71.24;101182.53;4982093;28;1965;-65
2020/12/19 12:45:33;;;;;;;;;;;;;;;18.72;71.18;101183.09;5010847;28;1250;-67
2020/12/19 12:48:01;;;;;;;;;;;;;;;18.85;70.23;101182.38;5010286;28;1229;-68
2020/12/19 12:50:28;;;;;;;;;;;;;;;18.72;69.82;101188.38;5010212;28;991;-68
2020/12/19 12:52:54;;;;;;;;;;;;;;;18.77;69.44;101196.91;4992154;28;1900;-67
2020/12/19 12:55:20;;;;;;;;;;;;;;;18.93;71.30;101203.13;5010624;28;1027;-69
2020/12/19 12:57:46;;;;;;;;;;;;;;;19.02;71.16;101194.75;5010688;28;1225;-68
2020/12/19 13:00:13;;;;;;;;;;;;;;;19.03;71.97;101194.66;4993124;28;912;-67
2020/12/19 13:02:39;;;;;;;;;;;;;;;19.07;71.47;101201.50;5010665;28;1902;-68
2020/12/19 13:05:08;;;;;;;;;;;;;;;19.05;72.25;101206.00;5011791;28;1631;-69
2020/12/19 13:07:34;;;;;;;;;;;;;;;19.10;73.01;101206.63;4991749;28;1229;-70
2020/12/19 13:10:01;;;;;;;;;;;;;;;19.16;72.61;101212.50;4983758;28;1585;-68
2020/12/19 13:12:30;;;;;;;;;;;;;;;19.06;72.87;101202.41;5010946;28;1877;-69
2020/12/19 13:14:56;;;;;;;;;;;;;;;19.00;72.89;101200.09;4989927;28;1861;-69
2020/12/19 13:17:23;;;;;;;;;;;;;;;19.14;71.88;101202.03;4992009;28;1308;-66
2020/12/19 13:19:49;;;;;;;;;;;;;;;19.04;72.82;101201.66;5009719;28;1200;-67
2020/12/19 13:22:16;;;;;;;;;;;;;;;19.00;72.83;101196.59;5009483;28;1354;-66